Time;durP1;ratioP1;P1;durP2;ratioP2;P2;SDS_P1;SDS_P2;PMS_P1;PMS_P2;Temp;Humidity;BMP_temperature;BMP_pressure;BME280_temperature;BME280_humidity;BME280_pressure;Samples;Min_cycle;Max_cycle;Signal;HPM_P1;HPM_P2
2022/09/15 00:01:50;;;;;;;14.30;9.73;;;;;;;-142.65;99.48;50178.75;5116819;28;20589;-77
2022/09/15 00:04:16;;;;;;;13.03;11.40;;;;;;;-142.65;99.48;50164.81;5116041;28;20193;-77
2022/09/15 00:06:43;;;;;;;15.07;10.97;;;;;;;-142.65;99.56;50170.78;5117162;28;20189;-77
2022/09/15 00:09:09;;;;;;;21.50;11.10;;;;;;;-142.65;99.65;50164.81;5116411;28;20209;-77
2022/09/15 00:11:36;;;;;;;15.83;11.70;;;;;;;-142.65;99.54;50170.78;5116791;28;20201;-77
2022/09/15 00:14:03;;;;;;;17.83;11.13;;;;;;;;;;5117016;28;20201;-77
2022/09/15 00:16:31;;;;;;;14.50;10.90;;;;;;;-142.65;99.62;50168.78;5117023;28;20173;-77
2022/09/15 00:18:59;;;;;;;16.80;11.87;;;;;;;-142.65;99.67;50170.78;5116504;28;20234;-77
2022/09/15 00:21:29;;;;;;;14.90;10.70;;;;;;;-142.65;99.62;50172.78;5116746;28;20189;-77
2022/09/15 00:23:58;;;;;;;13.73;11.90;;;;;;;-142.65;99.61;50162.81;5116625;28;20165;-77
2022/09/15 00:26:27;;;;;;;24.60;11.23;;;;;;;-142.65;99.34;50170.78;5116877;28;20177;-77
2022/09/15 00:28:55;;;;;;;17.20;11.40;;;;;;;-142.65;99.41;50168.78;5116329;28;20205;-77
2022/09/15 00:31:23;;;;;;;15.27;11.23;;;;;;;-142.65;99.30;50172.78;5116460;28;20550;-78
2022/09/15 00:33:52;;;;;;;14.07;9.80;;;;;;;-142.65;99.43;50174.75;5116050;28;20201;-77
2022/09/15 00:36:20;;;;;;;25.63;11.63;;;;;;;;;;5116321;28;20177;-77
2022/09/15 00:38:46;;;;;;;10.90;9.73;;;;;;;-142.65;99.34;50164.81;5115971;28;20213;-76
2022/09/15 00:41:19;;;;;;;14.73;10.37;;;;;;;-142.65;99.47;50164.81;5097989;28;20204;-77
2022/09/15 00:43:47;;;;;;;15.57;11.63;;;;;;;;;;5116202;28;20196;-77
2022/09/15 00:46:14;;;;;;;18.20;10.80;;;;;;;;;;5116397;28;20193;-77
2022/09/15 00:48:44;;;;;;;13.47;10.67;;;;;;;;;;5115843;28;20209;-77
2022/09/15 00:51:15;;;;;;;12.93;10.40;;;;;;;-142.65;99.50;50168.78;5116341;28;20188;-77
2022/09/15 00:53:42;;;;;;;10.27;9.30;;;;;;;;;;5116204;28;20197;-77
2022/09/15 00:56:11;;;;;;;11.17;9.97;;;;;;;-142.65;99.62;50174.75;5115724;28;20193;-77
2022/09/15 00:58:56;;;;;;;14.87;10.20;;;;;;;-142.65;99.66;50170.78;5115558;28;20280;-77
2022/09/15 01:01:24;;;;;;;14.20;11.00;;;;;;;;;;5115872;28;20181;-77
2022/09/15 01:03:50;;;;;;;16.80;9.37;;;;;;;-142.65;99.66;50170.78;5116354;28;20591;-77
2022/09/15 01:06:25;;;;;;;11.87;10.27;;;;;;;-142.65;99.75;50170.78;5115731;28;20182;-77
2022/09/15 01:09:09;;;;;;;10.07;9.17;;;;;;;-142.65;99.74;50172.78;5115556;28;20208;-77
2022/09/15 01:11:36;;;;;;;9.73;8.93;;;;;;;-142.65;99.77;50168.78;5115558;28;20193;-77
2022/09/15 01:14:03;;;;;;;9.10;8.40;;;;;;;;;;5115178;28;20212;-77
2022/09/15 01:17:06;;;;;;;9.77;8.87;;;;;;;-142.65;99.61;50168.78;5115110;28;20651;-77
2022/09/15 01:20:11;;;;;;;8.77;8.03;;;;;;;;;;5102389;28;20228;-76
2022/09/15 01:23:04;;;;;;;12.00;8.53;;;;;;;;;;5072530;28;20198;-76
2022/09/15 01:25:34;;;;;;;10.53;8.97;;;;;;;-142.65;99.45;50170.78;5072415;28;20187;-76
2022/09/15 01:28:03;;;;;;;11.13;9.83;;;;;;;;;;5101010;28;20316;-76
2022/09/15 01:30:36;;;;;;;10.23;9.33;;;;;;;-142.65;99.33;50168.78;5115234;28;20182;-76
2022/09/15 01:33:02;;;;;;;10.17;9.17;;;;;;;-142.65;99.37;50164.81;5115201;28;20638;-76
2022/09/15 01:35:43;;;;;;;10.80;8.80;;;;;;;-142.65;99.33;50174.75;5114829;28;20209;-76
2022/09/15 01:38:40;;;;;;;10.17;9.17;;;;;;;-142.65;99.31;50170.78;5115083;28;20205;-76
2022/09/15 01:41:12;;;;;;;8.47;7.60;;;;;;;;;;5114743;28;20213;-76
2022/09/15 01:43:44;;;;;;;6.53;6.23;;;;;;;-142.65;99.10;50164.81;5115011;28;20227;-76
2022/09/15 01:46:14;;;;;;;6.03;5.77;;;;;;;-142.65;99.05;50118.97;5114966;28;20250;-76
2022/09/15 01:48:42;;;;;;;7.10;6.63;;;;;;;-142.65;99.16;50164.81;5114566;28;20319;-76
2022/09/15 01:51:08;;;;;;;7.13;6.73;;;;;;;-142.65;99.03;50170.78;5114568;28;20189;-77
2022/09/15 01:53:35;;;;;;;6.43;6.03;;;;;;;-142.65;99.11;50162.81;5114988;28;20199;-77
2022/09/15 01:56:06;;;;;;;5.10;5.00;;;;;;;-142.65;99.18;50174.75;5114498;28;20713;-77
2022/09/15 01:58:33;;;;;;;7.67;7.07;;;;;;;;;;5114398;28;20209;-78
2022/09/15 02:01:11;;;;;;;12.43;7.53;;;;;;;-142.65;99.09;50170.78;5114380;28;20670;-77
2022/09/15 02:03:46;;;;;;;10.33;7.33;;;;;;;;;;5114918;28;20651;-77
2022/09/15 02:06:34;;;;;;;5.77;5.47;;;;;;;-142.65;98.90;50164.81;5114924;28;20205;-77
2022/09/15 02:09:07;;;;;;;14.77;11.40;;;;;;;-142.65;98.95;50168.78;5114365;28;20212;-76
2022/09/15 02:11:39;;;;;;;12.70;10.43;;;;;;;-142.65;98.96;50168.78;5114326;28;20561;-77
2022/09/15 02:14:16;;;;;;;12.97;11.17;;;;;;;;;;5114691;28;20555;-77
2022/09/15 02:16:51;;;;;;;14.47;10.43;;;;;;;;;;5114411;28;20173;-77
2022/09/15 02:19:20;;;;;;;16.57;10.80;;;;;;;-142.65;99.05;50162.81;5114173;28;20220;-77
2022/09/15 02:21:56;;;;;;;15.83;9.83;;;;;;;-142.65;99.16;50170.78;5114678;28;20181;-77
2022/09/15 02:24:29;;;;;;;11.67;9.73;;;;;;;;;;5114322;28;20200;-77
2022/09/15 02:26:58;;;;;;;11.13;9.20;;;;;;;-142.65;99.27;50164.81;5114327;28;20181;-77
2022/09/15 02:29:26;;;;;;;12.97;10.27;;;;;;;-142.65;99.37;50168.78;5113631;28;20216;-77
2022/09/15 02:31:55;;;;;;;23.20;9.87;;;;;;;-142.65;99.40;50170.78;5113972;28;20213;-77
2022/09/15 02:34:29;;;;;;;9.60;8.37;;;;;;;-142.65;99.45;50168.78;5113790;28;20236;-77
2022/09/15 02:36:55;;;;;;;10.07;9.07;;;;;;;;;;5113860;28;20184;-77
2022/09/15 02:39:28;;;;;;;11.63;9.67;;;;;;;-142.65;99.29;50170.78;5113772;28;20215;-76
2022/09/15 02:41:54;;;;;;;12.40;8.57;;;;;;;-142.65;99.14;50164.81;5114112;28;20196;-77
2022/09/15 02:44:21;;;;;;;11.90;9.97;;;;;;;-142.65;99.02;50172.78;5113804;28;20178;-77
2022/09/15 02:46:48;;;;;;;13.13;10.20;;;;;;;-142.65;99.22;50168.78;5113749;28;20211;-77
2022/09/15 02:49:14;;;;;;;11.00;9.90;;;;;;;;;;5113902;28;20212;-77
2022/09/15 02:51:40;;;;;;;9.60;9.00;;;;;;;-142.65;99.20;50168.78;5113670;28;20188;-77
2022/09/15 02:54:07;;;;;;;21.17;12.63;;;;;;;-142.65;99.19;50168.78;5113866;28;20209;-77
2022/09/15 02:56:33;;;;;;;14.63;11.00;;;;;;;-142.65;99.03;50168.78;5113634;28;20193;-77
2022/09/15 02:59:00;;;;;;;22.97;12.83;;;;;;;-142.65;99.15;50168.78;5113599;28;20197;-77
2022/09/15 03:01:33;;;;;;;20.20;11.90;;;;;;;-142.65;99.32;50172.78;5113594;28;20193;-77
2022/09/15 03:04:01;;;;;;;18.53;13.00;;;;;;;-142.65;99.34;50170.78;5113622;28;20170;-77
2022/09/15 03:06:33;;;;;;;24.70;13.23;;;;;;;-142.65;99.39;50168.78;5113671;28;20189;-77
2022/09/15 03:09:03;;;;;;;30.77;12.90;;;;;;;-142.65;99.32;50168.78;5113794;28;20215;-77
2022/09/15 03:11:31;;;;;;;20.07;12.83;;;;;;;-142.65;99.38;50164.81;5113592;28;20681;-77
2022/09/15 03:13:59;;;;;;;23.83;13.30;;;;;;;-142.65;99.45;50118.97;5113418;28;20185;-77
2022/09/15 03:16:27;;;;;;;20.60;13.23;;;;;;;-142.65;99.76;50168.78;5113449;28;20181;-77
2022/09/15 03:18:56;;;;;;;19.57;12.83;;;;;;;-142.65;99.80;50170.78;5113669;28;20204;-77
2022/09/15 03:21:22;;;;;;;32.30;14.07;;;;;;;;;;5113976;28;20181;-77
2022/09/15 03:23:49;;;;;;;21.20;13.13;;;;;;;-142.65;99.85;50180.75;5113668;28;20177;-77
2022/09/15 03:26:15;;;;;;;22.90;13.60;;;;;;;-142.65;99.98;50168.78;5113329;28;20193;-77
2022/09/15 03:28:42;;;;;;;25.40;13.40;;;;;;;;;;5113535;28;20213;-77
2022/09/15 03:31:08;;;;;;;20.80;13.67;;;;;;;-142.65;100.00;50170.78;5113315;28;20186;-77
2022/09/15 03:33:36;;;;;;;23.60;12.83;;;;;;;-142.65;100.00;50170.78;5113594;28;20185;-77
2022/09/15 03:36:02;;;;;;;22.60;13.63;;;;;;;-142.65;100.00;50170.78;5113446;28;20205;-77
2022/09/15 03:38:29;;;;;;;23.43;13.80;;;;;;;-142.65;100.00;50168.78;5113340;28;20223;-77
2022/09/15 03:41:07;;;;;;;24.63;14.17;;;;;;;-142.65;100.00;50170.78;5097270;28;20208;-77
2022/09/15 03:43:34;;;;;;;24.13;13.27;;;;;;;-142.65;100.00;50170.78;5117403;28;20173;-77
2022/09/15 03:46:01;;;;;;;34.97;15.03;;;;;;;;;;5116979;28;20189;-77
2022/09/15 03:48:30;;;;;;;29.60;14.00;;;;;;;-142.65;100.00;50162.81;5117740;28;20678;-76
2022/09/15 03:50:56;;;;;;;26.87;14.00;;;;;;;-142.65;100.00;50170.78;5117378;28;20201;-76
2022/09/15 03:53:23;;;;;;;27.00;13.53;;;;;;;;;;5116891;28;20189;-77
2022/09/15 03:55:49;;;;;;;32.90;14.33;;;;;;;-142.65;100.00;50164.81;5116818;28;20197;-77
2022/09/15 03:58:17;;;;;;;27.90;15.30;;;;;;;-142.65;100.00;50170.78;5117017;28;20201;-77
2022/09/15 04:00:44;;;;;;;34.47;14.67;;;;;;;;;;5117440;28;20181;-77
2022/09/15 04:03:11;;;;;;;23.63;13.70;;;;;;;-142.65;100.00;50170.78;5117190;28;20181;-77
2022/09/15 04:05:37;;;;;;;22.97;13.40;;;;;;;;;;5117061;28;20178;-77
2022/09/15 04:08:04;;;;;;;21.60;12.90;;;;;;;;;;5098645;28;20220;-77
2022/09/15 04:10:30;;;;;;;22.20;13.13;;;;;;;-142.65;100.00;50168.78;5117306;28;20189;-77
2022/09/15 04:12:57;;;;;;;27.17;15.10;;;;;;;-142.65;100.00;50162.81;5116485;28;20185;-76
2022/09/15 04:15:23;;;;;;;28.43;14.27;;;;;;;-142.65;100.00;50168.78;5116631;28;20209;-76
2022/09/15 04:17:49;;;;;;;31.47;13.77;;;;;;;-142.65;100.00;50164.81;5116615;28;20215;-76
2022/09/15 04:20:16;;;;;;;27.93;14.97;;;;;;;;;;5116665;28;20669;-76
2022/09/15 04:22:43;;;;;;;28.83;15.20;;;;;;;;;;5116290;28;20185;-77
2022/09/15 04:25:09;;;;;;;19.47;14.17;;;;;;;-142.65;100.00;50168.78;5116851;28;20184;-77
2022/09/15 04:27:37;;;;;;;26.57;14.73;;;;;;;-142.65;100.00;50164.81;5116599;28;20564;-77
2022/09/15 04:30:05;;;;;;;26.40;15.30;;;;;;;-142.65;100.00;50164.81;5116240;28;20174;-77
2022/09/15 04:32:34;;;;;;;24.40;13.97;;;;;;;-142.65;100.00;50172.78;5116156;28;20190;-77
2022/09/15 04:35:01;;;;;;;29.47;14.70;;;;;;;-142.65;100.00;50168.78;5116018;28;20209;-77
2022/09/15 04:37:27;;;;;;;28.77;14.70;;;;;;;-142.65;100.00;50174.75;5116326;28;20274;-76
2022/09/15 04:39:55;;;;;;;30.30;14.27;;;;;;;-142.65;100.00;50168.78;5116316;28;20200;-77
2022/09/15 04:42:22;;;;;;;21.57;13.00;;;;;;;-142.65;100.00;50170.78;5116075;28;20577;-77
2022/09/15 04:44:49;;;;;;;22.03;13.63;;;;;;;;;;5115965;28;20178;-77
2022/09/15 04:47:15;;;;;;;19.37;13.20;;;;;;;-142.65;100.00;50168.78;5116400;28;20520;-77
2022/09/15 04:49:42;;;;;;;24.63;14.03;;;;;;;;;;5115903;28;20536;-77
2022/09/15 04:52:08;;;;;;;21.13;12.93;;;;;;;;;;5115371;28;20194;-78
2022/09/15 04:54:35;;;;;;;24.97;13.50;;;;;;;-142.65;100.00;50164.81;5115585;28;20262;-78
2022/09/15 04:57:01;;;;;;;20.90;13.50;;;;;;;;;;5115803;28;20647;-78
2022/09/15 04:59:28;;;;;;;26.77;13.63;;;;;;;-142.65;100.00;50176.75;5116685;28;20205;-77
2022/09/15 05:01:54;;;;;;;24.03;13.03;;;;;;;-142.65;100.00;50170.78;5115950;28;20182;-77
2022/09/15 05:04:21;;;;;;;23.37;14.20;;;;;;;-142.65;100.00;50168.78;5115591;28;20181;-77
2022/09/15 05:06:47;;;;;;;22.60;13.63;;;;;;;;;;5115654;28;20177;-77
2022/09/15 05:09:13;;;;;;;24.13;13.77;;;;;;;;;;5115492;28;20205;-77
2022/09/15 05:11:40;;;;;;;28.37;14.37;;;;;;;-142.65;100.00;50164.81;5115354;28;20563;-77
2022/09/15 05:14:08;;;;;;;22.23;13.13;;;;;;;-142.65;100.00;50164.81;5115335;28;20192;-77
2022/09/15 05:16:34;;;;;;;22.10;12.90;;;;;;;;;;5115138;28;20197;-77
2022/09/15 05:19:04;;;;;;;22.63;13.20;;;;;;;;;;5115707;28;20287;-77
2022/09/15 05:21:31;;;;;;;21.90;12.77;;;;;;;-142.65;100.00;50174.75;5115266;28;20185;-78
2022/09/15 05:23:57;;;;;;;20.30;11.53;;;;;;;-142.65;100.00;50164.81;5115109;28;20193;-78
2022/09/15 05:26:28;;;;;;;25.53;14.27;;;;;;;-142.65;100.00;50168.78;5115162;28;20549;-78
2022/09/15 05:28:56;;;;;;;27.13;13.90;;;;;;;-142.65;100.00;50168.78;5115024;28;20658;-77
2022/09/15 05:31:25;;;;;;;21.67;13.73;;;;;;;-142.65;100.00;50168.78;5114977;28;20211;-77
2022/09/15 05:33:52;;;;;;;16.67;12.57;;;;;;;;;;5114963;28;20185;-77
2022/09/15 05:36:23;;;;;;;22.47;12.97;;;;;;;-142.65;100.00;50168.78;5115103;28;20209;-77
2022/09/15 05:38:51;;;;;;;20.07;12.97;;;;;;;;;;5115114;28;20204;-77
2022/09/15 05:41:18;;;;;;;17.17;13.07;;;;;;;-142.65;99.92;50164.81;5114850;28;20246;-77
2022/09/15 05:43:45;;;;;;;20.17;13.83;;;;;;;;;;5114751;28;20677;-77
2022/09/15 05:46:13;;;;;;;25.03;14.07;;;;;;;-142.65;99.99;50162.81;5114715;28;20203;-77
2022/09/15 05:48:39;;;;;;;28.30;15.33;;;;;;;;;;5114477;28;20205;-77
2022/09/15 05:51:05;;;;;;;17.90;12.90;;;;;;;;;;5114636;28;20204;-77
2022/09/15 05:53:34;;;;;;;22.07;13.10;;;;;;;-142.65;100.00;50170.78;5114483;28;20272;-77
2022/09/15 05:56:04;;;;;;;20.83;13.33;;;;;;;-142.65;100.00;50164.81;5113139;28;20640;-77
2022/09/15 05:58:31;;;;;;;18.07;13.23;;;;;;;-142.65;100.00;50164.81;5114420;28;20761;-77
2022/09/15 06:01:02;;;;;;;17.53;13.90;;;;;;;;;;5114428;28;20192;-77
2022/09/15 06:03:28;;;;;;;21.40;12.67;;;;;;;;;;5114489;28;20612;-77
2022/09/15 06:06:01;;;;;;;18.03;13.30;;;;;;;-142.65;100.00;50168.78;5114287;28;20253;-77
2022/09/15 06:08:31;;;;;;;26.30;14.37;;;;;;;;;;5114300;28;20229;-77
2022/09/15 06:11:02;;;;;;;20.17;13.77;;;;;;;;;;5114514;28;20182;-77
2022/09/15 06:13:28;;;;;;;33.33;14.63;;;;;;;-142.65;100.00;50162.81;5114473;28;20505;-77
2022/09/15 06:15:59;;;;;;;22.47;14.30;;;;;;;-142.65;100.00;50162.81;5114104;28;20288;-77
2022/09/15 06:18:26;;;;;;;27.67;13.70;;;;;;;-142.65;100.00;50162.81;5114295;28;20296;-76
2022/09/15 06:20:52;;;;;;;27.93;14.13;;;;;;;;;;5114533;28;20247;-77
2022/09/15 06:23:19;;;;;;;28.87;14.27;;;;;;;-142.65;100.00;50164.81;5114431;28;20260;-77
2022/09/15 06:25:45;;;;;;;25.50;12.70;;;;;;;-142.65;100.00;50168.78;5114155;28;20252;-77
2022/09/15 06:28:11;;;;;;;27.43;13.40;;;;;;;-142.65;100.00;50162.81;5114035;28;20778;-77
2022/09/15 06:30:39;;;;;;;21.47;14.63;;;;;;;-142.65;100.00;50170.78;5114618;28;20177;-77
2022/09/15 06:33:05;;;;;;;18.20;12.27;;;;;;;-142.65;100.00;50162.81;5113952;28;20272;-77
2022/09/15 06:35:32;;;;;;;16.93;13.17;;;;;;;;;;5113819;28;20234;-77
2022/09/15 06:37:58;;;;;;;24.17;13.13;;;;;;;;;;5114034;28;20211;-77
2022/09/15 06:40:24;;;;;;;23.90;13.07;;;;;;;-142.65;99.98;50170.78;5114141;28;20181;-77
2022/09/15 06:42:53;;;;;;;21.77;12.90;;;;;;;;;;5114094;28;20545;-77
2022/09/15 06:45:20;;;;;;;25.07;13.53;;;;;;;-142.65;99.38;50117.00;5114008;28;20665;-77
2022/09/15 06:47:46;;;;;;;14.60;13.03;;;;;;;;;;5113835;28;20762;-76
2022/09/15 06:50:32;;;;;;;18.57;12.93;;;;;;;-142.65;99.66;50164.81;5114066;28;20196;-77
2022/09/15 06:52:59;;;;;;;29.20;13.63;;;;;;;;;;5113665;28;20218;-77
2022/09/15 06:55:26;;;;;;;28.43;13.53;;;;;;;;;;5113551;28;20205;-77
2022/09/15 06:57:53;;;;;;;18.03;12.40;;;;;;;-142.65;99.38;50172.78;5113695;28;20201;-77
2022/09/15 07:00:19;;;;;;;22.60;12.63;;;;;;;;;;5114098;28;20192;-77
2022/09/15 07:02:49;;;;;;;18.43;11.80;;;;;;;;;;5113568;28;20264;-77
2022/09/15 07:05:16;;;;;;;16.20;12.37;;;;;;;-142.65;99.11;50168.78;5114116;28;20650;-77
2022/09/15 07:07:42;;;;;;;24.23;12.07;;;;;;;-142.65;99.14;50162.81;5113466;28;20208;-77
2022/09/15 07:10:08;;;;;;;14.90;11.90;;;;;;;;;;5113551;28;20722;-77
2022/09/15 07:12:35;;;;;;;15.57;11.37;;;;;;;-142.65;99.23;50170.78;5113408;28;20185;-77
2022/09/15 07:15:01;;;;;;;16.03;12.03;;;;;;;;;;5114119;28;20188;-77
2022/09/15 07:17:28;;;;;;;16.33;10.33;;;;;;;-142.65;98.70;50170.78;5117484;28;20193;-76
2022/09/15 07:19:54;;;;;;;22.90;10.37;;;;;;;;;;5118056;28;20188;-77
2022/09/15 07:22:20;;;;;;;22.03;8.60;;;;;;;;;;5117876;28;20212;-77
2022/09/15 07:24:47;;;;;;;14.07;8.67;;;;;;;-142.65;98.38;50164.81;5117388;28;20661;-77
2022/09/15 07:27:13;;;;;;;12.87;9.53;;;;;;;-142.65;98.28;50164.81;5117967;28;20264;-78
2022/09/15 07:29:40;;;;;;;8.73;8.03;;;;;;;;;;5117640;28;20212;-77
2022/09/15 07:32:06;;;;;;;8.07;7.57;;;;;;;-142.65;97.90;50162.81;5117807;28;20269;-77
2022/09/15 07:34:32;;;;;;;10.20;7.43;;;;;;;;;;5117548;28;20194;-76
2022/09/15 07:36:59;;;;;;;8.47;7.43;;;;;;;-142.65;97.00;50162.81;5117115;28;20207;-76
2022/09/15 07:39:25;;;;;;;19.07;7.63;;;;;;;;;;5117062;28;20211;-77
2022/09/15 07:41:51;;;;;;;18.27;7.97;;;;;;;-142.65;96.39;50162.81;5117694;28;20806;-77
2022/09/15 07:44:18;;;;;;;7.90;7.00;;;;;;;-142.65;95.81;50170.78;5098791;28;20287;-77
2022/09/15 07:46:45;;;;;;;10.93;7.17;;;;;;;-142.65;95.07;50164.81;5117037;28;20277;-77
2022/09/15 07:49:11;;;;;;;6.70;6.40;;;;;;;;;;5116911;28;20279;-76
2022/09/15 07:51:37;;;;;;;8.47;7.00;;;;;;;-142.65;94.66;50168.78;5117529;28;20272;-77
2022/09/15 07:54:04;;;;;;;6.83;6.33;;;;;;;-142.65;93.61;50162.81;5099255;28;20673;-77
2022/09/15 07:56:30;;;;;;;9.27;6.57;;;;;;;;;;5117321;28;20734;-77
2022/09/15 07:58:57;;;;;;;5.70;5.50;;;;;;;-142.65;92.91;50174.75;5116756;28;20239;-76
2022/09/15 08:01:23;;;;;;;8.97;6.53;;;;;;;;;;5117289;28;20230;-76
2022/09/15 08:03:51;;;;;;;18.70;7.13;;;;;;;-142.65;93.88;50180.75;5117010;28;20195;-76
2022/09/15 08:06:21;;;;;;;8.83;6.57;;;;;;;-142.65;92.94;50172.78;5116879;28;20663;-76
2022/09/15 08:08:49;;;;;;;6.97;6.50;;;;;;;-142.65;93.09;50172.78;5116505;28;20216;-76
2022/09/15 08:11:17;;;;;;;6.23;5.63;;;;;;;-142.65;93.21;50168.78;5116897;28;20203;-76
2022/09/15 08:13:45;;;;;;;5.90;5.60;;;;;;;;;;5116417;28;20193;-76
2022/09/15 08:16:17;;;;;;;5.87;5.57;;;;;;;-142.65;92.89;50168.78;5116677;28;20631;-76
2022/09/15 08:18:44;;;;;;;5.37;4.97;;;;;;;-142.65;91.68;50164.81;5116500;28;20245;-76
2022/09/15 08:21:14;;;;;;;8.00;5.00;;;;;;;-142.65;91.22;50170.78;5116302;28;20272;-76
2022/09/15 08:23:41;;;;;;;7.33;5.50;;;;;;;;;;5116589;28;20193;-77
2022/09/15 08:26:09;;;;;;;5.03;4.77;;;;;;;-142.65;90.66;50168.78;5115542;28;20667;-76
2022/09/15 08:28:40;;;;;;;4.63;4.20;;;;;;;;;;5115971;28;20242;-76
2022/09/15 08:31:08;;;;;;;6.67;4.33;;;;;;;-142.65;89.93;50170.78;5116739;28;20703;-76
2022/09/15 08:33:34;;;;;;;3.93;3.73;;;;;;;-142.65;88.40;50170.78;5116063;28;20204;-76
2022/09/15 08:36:09;;;;;;;4.13;3.60;;;;;;;-142.65;87.68;50168.78;5116029;28;20209;-76
2022/09/15 08:38:39;;;;;;;2.70;2.50;;;;;;;;;;5115978;28;20204;-75
2022/09/15 08:41:23;;;;;;;3.30;3.00;;;;;;;-142.65;86.20;50164.81;5115896;28;20189;-75
2022/09/15 08:44:00;;;;;;;3.13;2.93;;;;;;;;;;5116317;28;20170;-76
2022/09/15 08:46:38;;;;;;;2.70;2.50;;;;;;;-142.65;85.30;50164.81;5116200;28;20187;-76
2022/09/15 08:49:21;;;;;;;2.57;2.37;;;;;;;-142.65;85.89;50160.81;5116095;28;20567;-76
2022/09/15 08:52:39;;;;;;;2.60;2.27;;;;;;;-142.65;83.32;50164.81;5115671;28;20655;-76
2022/09/15 08:55:14;;;;;;;4.83;2.40;;;;;;;-142.65;83.99;50162.81;5111533;28;20363;-76
2022/09/15 08:57:40;;;;;;;6.03;2.83;;;;;;;;;;5115655;28;20204;-75
2022/09/15 09:00:13;;;;;;;10.03;2.23;;;;;;;-142.65;82.77;50162.81;5115877;28;20539;-75
2022/09/15 09:03:09;;;;;;;2.87;1.67;;;;;;;-142.65;78.04;50164.81;5115881;28;20170;-76
2022/09/15 09:05:48;;;;;;;1.10;1.10;;;;;;;;;;5100691;28;20184;-74
2022/09/15 09:08:48;;;;;;;6.43;1.80;;;;;;;-142.65;80.24;50164.81;5112259;28;20215;-75
2022/09/15 09:11:33;;;;;;;2.03;1.80;;;;;;;-142.65;82.46;50164.81;5114076;28;20187;-74
2022/09/15 09:14:21;;;;;;;4.50;1.93;;;;;;;-142.65;81.06;50164.81;5097244;28;20169;-75
2022/09/15 09:17:07;;;;;;;1.20;1.20;;;;;;;;;;5115114;28;20199;-75
2022/09/15 09:20:01;;;;;;;2.67;1.40;;;;;;;-142.65;77.68;50168.78;5097635;28;20239;-75
2022/09/15 09:22:33;;;;;;;1.53;1.53;;;;;;;-142.65;78.06;50168.78;5115518;28;20172;-75
2022/09/15 09:25:01;;;;;;;1.40;1.30;;;;;;;;;;5115499;28;20535;-75
2022/09/15 09:27:47;;;;;;;1.83;1.20;;;;;;;;;;5115027;28;20201;-75
2022/09/15 09:30:14;;;;;;;1.80;1.70;;;;;;;;;;5096747;28;20671;-75
2022/09/15 09:32:44;;;;;;;1.73;1.63;;;;;;;;;;5115328;28;20203;-75
2022/09/15 09:35:13;;;;;;;4.10;1.67;;;;;;;;;;5114907;28;20185;-75
2022/09/15 09:37:40;;;;;;;8.70;2.03;;;;;;;-142.65;76.72;50168.78;5114321;28;20242;-75
2022/09/15 09:40:11;;;;;;;2.63;2.10;;;;;;;-142.65;77.31;50168.78;5115057;28;20557;-75
2022/09/15 09:42:38;;;;;;;2.00;1.90;;;;;;;;;;5115373;28;20619;-75
2022/09/15 09:45:06;;;;;;;4.73;2.43;;;;;;;-142.65;80.85;50164.81;5115340;28;20173;-74
2022/09/15 09:47:33;;;;;;;7.00;2.70;;;;;;;;;;5114868;28;20204;-75
2022/09/15 09:50:00;;;;;;;1.77;1.77;;;;;;;-142.65;75.06;50160.81;5115187;28;20174;-75
2022/09/15 09:52:35;;;;;;;2.10;1.60;;;;;;;-142.65;74.33;50170.78;5114929;28;20169;-75
2022/09/15 09:55:17;;;;;;;5.10;2.87;;;;;;;-142.65;77.21;50168.78;5114564;28;20259;-75
2022/09/15 09:57:43;;;;;;;5.37;2.87;;;;;;;-142.65;77.43;50170.78;5114603;28;20217;-74
2022/09/15 10:00:28;;;;;;;2.60;2.40;;;;;;;;;;5114493;28;20609;-74
2022/09/15 10:02:55;;;;;;;2.93;2.73;;;;;;;-142.65;76.01;50164.81;5096347;28;20342;-75
2022/09/15 10:05:21;;;;;;;2.53;2.37;;;;;;;-142.65;78.09;50162.81;5114934;28;20187;-75
2022/09/15 10:07:48;;;;;;;2.40;2.30;;;;;;;-142.65;76.09;50170.78;5114279;28;20204;-74
2022/09/15 10:10:22;;;;;;;3.17;2.60;;;;;;;;;;5115014;28;20181;-74
2022/09/15 10:12:49;;;;;;;3.97;2.17;;;;;;;;;;5114059;28;20647;-74
2022/09/15 10:15:27;;;;;;;5.53;2.33;;;;;;;-142.65;76.75;50170.78;5114129;28;20207;-74
2022/09/15 10:17:55;;;;;;;5.23;1.90;;;;;;;-142.65;76.86;50164.81;5114060;28;20223;-75
2022/09/15 10:20:54;;;;;;;2.03;1.77;;;;;;;-142.65;77.18;50162.81;5114115;28;20204;-75
2022/09/15 10:23:20;;;;;;;6.67;2.60;;;;;;;;;;5092841;28;20200;-74
2022/09/15 10:25:47;;;;;;;2.57;2.03;;;;;;;-142.65;78.39;50168.78;5113953;28;20192;-74
2022/09/15 10:28:26;;;;;;;3.10;2.90;;;;;;;-142.65;78.99;50162.81;5114093;28;20220;-75
2022/09/15 10:31:06;;;;;;;2.63;2.50;;;;;;;;;;5113993;28;20193;-74
2022/09/15 10:33:37;;;;;;;2.13;1.50;;;;;;;-142.65;80.20;50160.81;5114204;28;20187;-74
2022/09/15 10:36:10;;;;;;;2.17;2.07;;;;;;;-142.65;81.12;50164.81;5114397;28;20276;-74
2022/09/15 10:38:41;;;;;;;2.43;2.23;;;;;;;-142.65;82.12;50164.81;5114313;28;20257;-76
2022/09/15 10:41:12;;;;;;;5.73;1.53;;;;;;;;;;5114401;28;20534;-75
2022/09/15 10:44:03;;;;;;;1.40;1.30;;;;;;;-142.65;84.22;50164.81;5114136;28;20182;-75
2022/09/15 10:46:54;;;;;;;1.27;1.27;;;;;;;-142.65;84.95;50164.81;5113776;28;20178;-75
2022/09/15 10:49:26;;;;;;;1.97;1.87;;;;;;;;;;5113435;28;20711;-74
2022/09/15 10:52:10;;;;;;;1.30;1.30;;;;;;;-142.65;86.47;50170.78;5113902;28;20509;-74
2022/09/15 10:55:05;;;;;;;2.27;1.13;;;;;;;-142.65;86.93;50170.78;5113939;28;20183;-74
2022/09/15 10:57:59;;;;;;;1.30;1.30;;;;;;;-142.65;87.34;50168.78;5114100;28;20205;-74
2022/09/15 11:00:38;;;;;;;1.30;1.30;;;;;;;-142.65;87.63;50170.78;5113909;28;20173;-74
2022/09/15 11:03:26;;;;;;;1.30;1.30;;;;;;;-142.65;87.68;50168.78;5113889;28;20185;-74
2022/09/15 11:06:16;;;;;;;1.60;1.60;;;;;;;-142.65;88.11;50170.78;5113603;28;20179;-74
2022/09/15 11:09:05;;;;;;;1.60;1.50;;;;;;;-142.65;88.27;50172.78;5114045;28;20209;-75
2022/09/15 11:11:41;;;;;;;1.37;1.27;;;;;;;-142.65;88.40;50170.78;5113824;28;20681;-76
2022/09/15 11:14:16;;;;;;;8.43;1.47;;;;;;;;;;5114090;28;20622;-76
2022/09/15 11:16:48;;;;;;;1.13;1.13;;;;;;;;;;5113689;28;20200;-75
2022/09/15 11:19:35;;;;;;;1.93;1.70;;;;;;;-142.65;88.04;50164.81;5113436;28;20219;-75
2022/09/15 11:22:04;;;;;;;2.23;1.77;;;;;;;;;;5113421;28;20178;-75
2022/09/15 11:24:42;;;;;;;1.30;1.20;;;;;;;-142.65;83.52;50174.75;5113329;28;20181;-75
2022/09/15 11:27:41;;;;;;;1.93;1.40;;;;;;;-142.65;82.07;50164.81;5113372;28;20184;-75
2022/09/15 11:30:17;;;;;;;1.30;1.20;;;;;;;;;;5111027;28;20193;-74
2022/09/15 11:33:04;;;;;;;5.07;1.63;;;;;;;-142.65;84.29;50170.78;5094879;28;20550;-75
2022/09/15 11:35:53;;;;;;;5.40;1.53;;;;;;;-142.65;84.74;50168.78;5111867;28;20189;-74
2022/09/15 11:38:28;;;;;;;1.90;1.80;;;;;;;-142.65;84.30;50168.78;5112774;28;20709;-75
2022/09/15 11:40:58;;;;;;;1.77;1.67;;;;;;;-142.65;83.81;50168.78;5113512;28;20180;-76
2022/09/15 11:43:33;;;;;;;2.90;1.80;;;;;;;-142.65;84.30;50170.78;5113471;28;20177;-76
2022/09/15 11:46:00;;;;;;;6.87;1.63;;;;;;;;;;5113804;28;20264;-75
2022/09/15 11:48:32;;;;;;;2.03;1.90;;;;;;;;;;5113416;28;20198;-74
2022/09/15 11:51:02;;;;;;;2.27;2.17;;;;;;;-142.65;84.35;50162.81;5113720;28;20177;-75
2022/09/15 11:54:03;;;;;;;3.23;2.13;;;;;;;;;;5113066;28;20193;-75
2022/09/15 11:56:39;;;;;;;3.50;1.80;;;;;;;-142.65;85.11;50170.78;5070457;28;20221;-75
2022/09/15 11:59:25;;;;;;;2.73;1.93;;;;;;;;;;5107380;28;20221;-74
2022/09/15 12:02:06;;;;;;;3.37;2.20;;;;;;;-142.65;82.74;50168.78;5114999;28;20176;-74
2022/09/15 12:04:42;;;;;;;6.00;2.17;;;;;;;-142.65;81.48;50168.78;5116803;28;20173;-74
2022/09/15 12:07:16;;;;;;;3.80;2.00;;;;;;;-142.65;81.28;50164.81;5116975;28;20508;-74
2022/09/15 12:09:42;;;;;;;2.83;1.73;;;;;;;-142.65;79.37;50164.81;5116903;28;20550;-73
2022/09/15 12:12:14;;;;;;;5.07;2.43;;;;;;;-142.65;79.20;50168.78;5116564;28;20197;-74
2022/09/15 12:14:43;;;;;;;4.00;1.40;;;;;;;-142.65;79.31;50162.81;5115989;28;20193;-73
2022/09/15 12:17:20;;;;;;;2.07;1.83;;;;;;;-142.65;79.60;50162.81;5116244;28;20200;-73
2022/09/15 12:19:46;;;;;;;8.03;1.90;;;;;;;;;;5116552;28;20180;-73
2022/09/15 12:22:16;;;;;;;1.80;1.37;;;;;;;;;;5116564;28;20178;-73